Mifflinburg, Pennsylvania
Current Conditions -  °F | °C
As of 2:53 AM on Sunday 21 Dec 2014 (Local Time) from KSEG Reporting Station
Overcast Overcast  
Wind Chill: 26°   Ceiling: 2800
Heat Index: 31°   Visibility: 10mi
Dew Point: 22°   Wind: 5mph
Humidity: 69%   Direction: 300°WNW
Pressure: 30.3"   Gusts: NA
Location:  40.92°N, 77.05°W
Report Text: KSEG 210753Z AUTO 30004KT 10SM OVC028 M01/M06 A3030 RMK AO2 SLP264 T10061056
Loading
Personal Weather Stations






























Interactive Weather Map New forecast layout! Learn more

10-Day Weather Forecast

Advertisements
Track Severe Weather on mobile